Flight Number: EUR3036 Duration: 11:00
Departure: Helsinki Vantaa (EFHK) at 08:00 Distance: 4494 Nm
Arrival: Miami Int'l (KMIA) at 19:00 Equipment: A340

Weather Information
Helsinki-Vantaa, Finland (EFHK) 60-19N 024-58E 56M Jan 22, 2018 - 02:50 AM EST / 2018.01.22 0750 UTC
Wind: Variable at 3 MPH (3 KT):0
Visibility: greater than 7 mile(s):0
Sky conditions: mostly cloudy Weather: light snow Temperature: 21 F (-6 C) Dew Point: 19 F (-7 C) Relative Humidity: 92% Pressure (altimeter): 29.80 in. Hg (1009 hPa)
ob: EFHK 220750Z VRB03KT 9999 -SN BKN006 M06/M07 Q1009 TEMPO 4000 cycle: 8
Sunrise: 07:02 Sunset: 14:00 (UTC)

MIAMI INTERNATIONAL AIRPORT , FL, United States (KMIA) 25-47N 080-19W 8M Jan 22, 2018 - 02:53 AM EST / 2018.01.22 0753 UTC
Wind: from the E (100 degrees) at 9 MPH (8 KT):0
Visibility: 10 mile(s):0
Sky conditions: partly cloudy Temperature: 73.0 F (22.8 C) Dew Point: 66.9 F (19.4 C) Relative Humidity: 81% Pressure (altimeter): 30.08 in. Hg (1018 hPa)
ob: KMIA 220753Z 10008KT 10SM SCT023 23/19 A3008 RMK AO2 SLP186 T02280194 cycle: 8
Sunrise: 12:10 Sunset: 22:54 (UTC)

TAF:2018/01/22 06:42 TAF KMIA 220539Z 2206/2312 10010KT P6SM SCT030 SCT250 FM221400 11011KT P6SM SCT025 BKN050 FM222200 12007KT P6SM SCT020

This route has never been flown.

Route map